CheckWX is a tool to help pilots better visualize weather data.  It is not intended as a substitute for an official pre-flight weather briefing.

05:11:28 UTC

KHLR METAR
Hood AAF Airport
Fort Hood(Killeen), Texas, USA
Current

1 hour ago

KHLR 240358Z 34012KT 10SM CLR 13/M04 A3008 RMK AO2 SLP182 T01291038
Observed
Feb-24 @ 03:58 UTC
Wind
  • 340° at 12 KTS
Visibility
10 SM
Flight Rules
VFR
Cloud Levels
  • Clear skies
Temperature
13°C / 55°F
Dewpoint
-4°C / 25°F
Humidity
31%
Altimeter
30.08" Hg
Pressure
1018.2 hPa
Previous

3 hours ago

KHLR 240158Z AUTO 27008KT 10SM CLR 16/M06 A2998 RMK AO2 SLP148 T01591060
Observed
Feb-24 @ 01:58 UTC
Wind
  • 270° at 8 KTS
Visibility
10 SM
Flight Rules
VFR
Cloud Levels
  • Clear skies
Temperature
16°C / 61°F
Dewpoint
-6°C / 21°F
Humidity
22%
Altimeter
29.98" Hg
Pressure
1014.8 hPa
Previous

4 hours ago

KHLR 240058Z AUTO 29008KT 10SM CLR 18/M07 A2995 RMK AO2 SLP138 T01781075
Observed
Feb-24 @ 00:58 UTC
Wind
  • 290° at 8 KTS
Visibility
10 SM
Flight Rules
VFR
Cloud Levels
  • Clear skies
Temperature
18°C / 64°F
Dewpoint
-8°C / 18°F
Humidity
16%
Altimeter
29.95" Hg
Pressure
1013.8 hPa